This is the latest recevied weather packets stored in our database for station/object IN3ISU-13. If no packets are shown the sender has not sent any weather packets the latest 10 day(s).
| Time | Temp. | Humidity | Pressure | Rain* | Wind** | Luminosity | Snow |
|---|---|---|---|---|---|---|---|
| 1788431402 | 26.67° C | 46% | 1020 hPa | 0 mm | - | - | - |
| 1788429602 | 26.11° C | 45% | 1021 hPa | 0 mm | - | - | - |
| 1788427803 | 25° C | 53% | 1021 hPa | 0 mm | - | - | - |
| 1788426003 | 24.44° C | 55% | 1022 hPa | 0 mm | - | - | - |
| 1788424203 | 22.22° C | 60% | 1022 hPa | 0 mm | - | - | - |
| 1788422402 | 21.67° C | 62% | 1022 hPa | 0 mm | - | - | - |
| 1788420603 | 21.11° C | 62% | 1022 hPa | 0 mm | - | - | - |
| 1788418802 | 20.56° C | 58% | 1023 hPa | 0 mm | - | - | - |
| 1788417002 | 18.89° C | 62% | 1023 hPa | 0 mm | - | - | - |
| 1788415201 | 18.33° C | 65% | 1022 hPa | 0 mm | - | - | - |
| 1788413402 | 17.78° C | 69% | 1022 hPa | 0 mm | - | - | - |
| 1788411602 | 17.78° C | 78% | 1022 hPa | 0 mm | - | - | - |
| 1788409802 | 17.78° C | 78% | 1022 hPa | 0 mm | - | - | - |
| 1788408002 | 17.78° C | 78% | 1022 hPa | 0 mm | - | - | - |
| 1788406202 | 18.89° C | 78% | 1022 hPa | 0 mm | - | - | - |
| 1788404403 | 18.89° C | 78% | 1022 hPa | 0 mm | - | - | - |
| 1788402602 | 18.89° C | 78% | 1022 hPa | 0 mm | - | - | - |
| 1788377405 | 22.78° C | 82% | 1021 hPa | 0 mm | - | - | - |
| 1788373802 | 23.89° C | 78% | 1018 hPa | 0 mm | - | - | - |
| 1788370201 | 27.22° C | 46% | 1017 hPa | 0 mm | - | - | - |
| 1788363002 | 30.56° C | 34% | 1017 hPa | 0.25 mm | - | - | - |
| 1788355802 | 29.44° C | 48% | 1018 hPa | 0 mm | - | - | - |
| 1788354001 | 28.89° C | 49% | 1018 hPa | 0 mm | - | - | - |
| 1788352202 | 28.33° C | 49% | 1018 hPa | 0 mm | - | - | - |
| 1788348602 | 27.22° C | 50% | 1019 hPa | 0 mm | - | - | - |
* Rain latest hour (hover to see other rain measurements)
** Current wind speed in m/s (hover to see current wind gust speed)